Buena Vista, New Mexico
Current Conditions -  °F | °C
As of 2:53 AM on Sunday 23 Nov 2014 (Local Time) from KLVS Reporting Station
Clear Clear  
Wind Chill: 30°   Ceiling: Unl
Heat Index: 37°   Visibility: 10mi
Dew Point: 21°   Wind: 10mph
Humidity: 52%   Direction: 280°W
Pressure: 29.67"   Gusts: NA
Location:  35.91°N, 105.25°W
Report Text: KLVS 230953Z AUTO 28009KT 10SM CLR 03/M06 A2967 RMK AO2 SLP986 T00281061
Loading
Personal Weather Stations






























Interactive Weather Map New forecast layout! Learn more

10-Day Weather Forecast

Advertisements
Track Severe Weather on mobile